createdAt,value
2018-03-06T00:01:52.908Z,97.50
2018-03-06T00:04:21.319Z,93.67
2018-03-06T00:06:49.665Z,92.70
2018-03-06T00:09:18.067Z,94.67
2018-03-06T00:11:48.341Z,107.47
2018-03-06T00:14:18.873Z,97.73
2018-03-06T00:16:48.242Z,97.20
2018-03-06T00:19:16.579Z,97.30
2018-03-06T00:21:44.915Z,96.23
2018-03-06T00:24:13.271Z,96.10
2018-03-06T00:26:41.606Z,88.27
2018-03-06T00:29:11.732Z,97.10
2018-03-06T00:31:40.076Z,99.90
2018-03-06T00:34:08.445Z,85.10
2018-03-06T00:36:37.586Z,92.87
2018-03-06T00:39:06.038Z,90.70
2018-03-06T00:41:34.592Z,91.37
2018-03-06T00:44:02.929Z,93.27
2018-03-06T00:46:31.248Z,100.10
2018-03-06T00:48:59.628Z,93.83
2018-03-06T00:51:28.094Z,98.53
2018-03-06T00:53:59.071Z,99.77
2018-03-06T00:56:28.288Z,99.33
2018-03-06T00:58:57.483Z,100.10
2018-03-06T01:01:28.509Z,110.37
2018-03-06T01:03:56.912Z,107.30
2018-03-06T01:06:25.291Z,100.30
2018-03-06T01:08:53.609Z,104.53
2018-03-06T01:11:22.791Z,100.60
2018-03-06T01:13:51.140Z,101.70
2018-03-06T01:16:19.595Z,91.63
2018-03-06T01:18:47.944Z,92.87
2018-03-06T01:21:16.393Z,104.97
2018-03-06T01:23:45.803Z,100.37
2018-03-06T01:26:16.867Z,101.53
2018-03-06T01:28:45.298Z,99.60
2018-03-06T01:31:13.629Z,96.57
2018-03-06T01:33:42.025Z,91.93
2018-03-06T01:36:14.830Z,93.60
2018-03-06T01:38:43.178Z,103.03
2018-03-06T01:41:11.510Z,99.97
2018-03-06T01:43:39.842Z,95.73
2018-03-06T01:46:08.183Z,95.50
2018-03-06T01:48:36.537Z,93.33
2018-03-06T01:51:04.881Z,97.20
2018-03-06T01:53:33.331Z,94.17
2018-03-06T01:56:01.677Z,92.93
2018-03-06T01:58:30.054Z,90.60
2018-03-06T02:00:58.459Z,94.20
2018-03-06T02:03:26.804Z,90.60
2018-03-06T02:05:55.187Z,94.37
2018-03-06T02:08:23.501Z,93.63
2018-03-06T02:10:51.911Z,92.80
2018-03-06T02:13:20.454Z,97.77
2018-03-06T02:15:48.934Z,92.20
2018-03-06T02:18:17.374Z,87.37
2018-03-06T02:20:45.829Z,87.80
2018-03-06T02:23:14.197Z,95.10
2018-03-06T02:25:42.555Z,91.77
2018-03-06T02:28:11.722Z,89.43
2018-03-06T02:30:41.673Z,89.07
2018-03-06T02:33:10.058Z,84.37
2018-03-06T02:35:38.508Z,91.60
2018-03-06T02:38:08.709Z,89.07
2018-03-06T02:40:37.092Z,88.97
2018-03-06T02:43:07.348Z,92.83
2018-03-06T02:45:35.727Z,89.80
2018-03-06T02:48:04.866Z,90.43
2018-03-06T02:50:33.229Z,89.07
2018-03-06T02:53:04.439Z,93.67
2018-03-06T02:55:32.896Z,87.63
2018-03-06T02:58:02.016Z,92.33
2018-03-06T03:00:32.118Z,93.43
2018-03-06T03:03:02.648Z,86.27
2018-03-06T03:05:31.154Z,86.47
2018-03-06T03:07:59.546Z,83.07
2018-03-06T03:10:29.472Z,87.43
2018-03-06T03:12:57.803Z,86.80
2018-03-06T03:15:26.184Z,94.60
2018-03-06T03:17:55.616Z,88.07
2018-03-06T03:20:25.798Z,92.90
2018-03-06T03:22:54.183Z,82.23
2018-03-06T03:25:22.600Z,87.13
2018-03-06T03:27:50.972Z,92.90
2018-03-06T03:30:19.403Z,84.30
2018-03-06T03:32:49.442Z,83.13
2018-03-06T03:35:17.874Z,81.63
2018-03-06T03:37:46.239Z,85.40
2018-03-06T03:40:16.260Z,85.03
2018-03-06T03:42:44.713Z,96.07
2018-03-06T03:45:14.999Z,83.33
2018-03-06T03:47:43.376Z,94.60
2018-03-06T03:50:11.754Z,90.23
2018-03-06T03:52:42.697Z,86.93
2018-03-06T03:55:12.710Z,90.00
2018-03-06T03:57:41.038Z,89.47
2018-03-06T04:00:11.159Z,91.23
2018-03-06T04:02:39.529Z,89.53
2018-03-06T04:05:07.874Z,87.43
2018-03-06T04:07:37.954Z,96.30
2018-03-06T04:10:06.460Z,85.80
2018-03-06T04:12:34.905Z,92.60
2018-03-06T04:15:03.384Z,82.50
2018-03-06T04:17:33.540Z,90.80
2018-03-06T04:20:04.080Z,88.60
2018-03-06T04:22:34.580Z,90.53
2018-03-06T04:25:04.519Z,92.67
2018-03-06T04:27:32.898Z,89.03
2018-03-06T04:30:01.393Z,93.83
2018-03-06T04:32:29.735Z,89.97
2018-03-06T04:34:58.162Z,86.53
2018-03-06T04:37:28.302Z,90.03
2018-03-06T04:39:58.386Z,91.07
2018-03-06T04:42:26.733Z,89.03
2018-03-06T04:44:55.098Z,85.33
2018-03-06T04:47:23.520Z,94.63
2018-03-06T04:49:51.898Z,85.33
2018-03-06T04:52:21.977Z,84.97
2018-03-06T04:54:50.442Z,90.50
2018-03-06T04:57:20.560Z,85.67
2018-03-06T04:59:48.941Z,86.87
2018-03-06T05:02:19.113Z,83.63
2018-03-06T05:04:47.635Z,82.33
2018-03-06T05:07:16.069Z,79.80
2018-03-06T05:09:44.462Z,91.07
2018-03-06T05:12:12.807Z,84.37
2018-03-06T05:14:41.139Z,81.37
2018-03-06T05:17:09.567Z,81.37
2018-03-06T05:19:37.998Z,78.50
2018-03-06T05:22:08.072Z,77.97
2018-03-06T05:24:36.440Z,72.93
2018-03-06T05:27:04.835Z,78.10
2018-03-06T05:29:33.182Z,75.53
2018-03-06T05:32:04.268Z,83.97
2018-03-06T05:34:32.723Z,75.20
2018-03-06T05:37:01.062Z,74.07
2018-03-06T05:39:32.054Z,78.27
2018-03-06T05:42:00.582Z,81.43
2018-03-06T05:44:28.968Z,74.83
2018-03-06T05:46:59.410Z,87.50
2018-03-06T05:49:30.398Z,76.70
2018-03-06T05:52:00.651Z,78.17
2018-03-06T05:54:31.692Z,84.83
2018-03-06T05:57:00.085Z,85.90
2018-03-06T05:59:29.167Z,62.67
2018-03-06T06:01:57.573Z,75.00
2018-03-06T06:04:27.562Z,71.13
2018-03-06T06:06:58.619Z,71.70
2018-03-06T06:09:27.966Z,73.00
2018-03-06T06:11:56.409Z,73.33
2018-03-06T06:14:24.777Z,74.23
2018-03-06T06:16:53.197Z,80.13
2018-03-06T06:19:23.331Z,70.33
2018-03-06T06:21:53.579Z,74.10
2018-03-06T06:24:22.167Z,77.73
2018-03-06T06:26:51.484Z,70.90
2018-03-06T06:29:21.759Z,75.90
2018-03-06T06:31:50.136Z,75.10
2018-03-06T06:34:19.435Z,69.07
2018-03-06T06:36:47.923Z,69.43
2018-03-06T06:39:16.352Z,73.63
2018-03-06T06:41:44.942Z,73.57
2018-03-06T06:44:13.349Z,72.00
2018-03-06T06:46:43.339Z,74.23
2018-03-06T06:49:11.865Z,82.47
2018-03-06T06:51:41.844Z,75.30
2018-03-06T06:54:10.610Z,76.77
2018-03-06T06:56:38.935Z,77.73
2018-03-06T06:59:08.115Z,77.10
2018-03-06T07:01:36.557Z,69.23
2018-03-06T07:04:04.992Z,66.03
2018-03-06T07:06:33.433Z,83.30
2018-03-06T07:09:03.580Z,74.03
2018-03-06T07:11:32.069Z,77.67
2018-03-06T07:14:00.699Z,81.17
2018-03-06T07:16:29.081Z,69.97
2018-03-06T07:18:57.415Z,76.10
2018-03-06T07:21:26.593Z,69.50
2018-03-06T07:23:54.927Z,76.20
2018-03-06T07:26:24.995Z,77.13
2018-03-06T07:28:55.083Z,76.27
2018-03-06T07:31:25.330Z,70.40
2018-03-06T07:33:53.866Z,74.40
2018-03-06T07:36:22.351Z,73.60
2018-03-06T07:38:51.584Z,75.17
2018-03-06T07:41:20.758Z,71.60
2018-03-06T07:43:49.117Z,79.63
2018-03-06T07:46:17.792Z,74.57
2018-03-06T07:48:46.170Z,76.73
2018-03-06T07:51:14.554Z,75.60
2018-03-06T07:53:43.595Z,72.43
2018-03-06T07:56:12.182Z,73.43
2018-03-06T07:58:40.579Z,78.23
2018-03-06T08:01:09.028Z,73.70
2018-03-06T08:03:37.444Z,73.63
2018-03-06T08:06:08.428Z,80.20
2018-03-06T08:08:36.821Z,78.20
2018-03-06T08:11:05.396Z,73.13
2018-03-06T08:13:34.518Z,73.00
2018-03-06T08:16:03.031Z,77.10
2018-03-06T08:18:31.382Z,75.03
2018-03-06T08:20:59.760Z,74.00
2018-03-06T08:23:28.175Z,76.50
2018-03-06T08:25:56.482Z,73.80
2018-03-06T08:28:24.824Z,76.10
2018-03-06T08:30:56.053Z,73.03
2018-03-06T08:33:24.620Z,77.10
2018-03-06T08:35:53.054Z,69.73
2018-03-06T08:38:22.227Z,79.77
2018-03-06T08:40:51.326Z,73.53
2018-03-06T08:43:19.622Z,74.67
2018-03-06T08:45:47.981Z,72.37
2018-03-06T08:48:16.388Z,67.73
2018-03-06T08:50:44.768Z,80.27
2018-03-06T08:53:15.680Z,79.00
2018-03-06T08:55:44.880Z,72.50
2018-03-06T08:58:13.985Z,76.00
2018-03-06T09:00:42.414Z,76.97
2018-03-06T09:03:10.812Z,82.20
2018-03-06T09:05:40.257Z,79.70
2018-03-06T09:08:08.599Z,77.43
2018-03-06T09:10:36.918Z,77.17
2018-03-06T09:13:07.004Z,82.20
2018-03-06T09:15:35.381Z,80.37
2018-03-06T09:18:03.828Z,75.20
2018-03-06T09:20:32.222Z,79.83
2018-03-06T09:23:00.599Z,78.63
2018-03-06T09:25:29.050Z,84.67
2018-03-06T09:27:58.256Z,78.27
2018-03-06T09:30:26.712Z,80.97
2018-03-06T09:32:55.065Z,85.00
2018-03-06T09:35:23.420Z,80.13
2018-03-06T09:37:51.774Z,81.80
2018-03-06T09:40:20.157Z,87.63
2018-03-06T09:42:50.381Z,82.17
2018-03-06T09:45:20.501Z,80.93
2018-03-06T09:47:48.851Z,87.60
2018-03-06T09:50:17.288Z,93.17
2018-03-06T09:52:45.756Z,89.40
2018-03-06T09:55:17.009Z,75.97
2018-03-06T09:57:46.210Z,89.23
2018-03-06T10:00:16.269Z,77.70
2018-03-06T10:02:44.676Z,83.90
2018-03-06T10:05:13.611Z,80.87
2018-03-06T10:07:42.073Z,77.43
2018-03-06T10:10:10.432Z,93.23
2018-03-06T10:12:40.551Z,87.17
2018-03-06T10:15:09.019Z,84.10
2018-03-06T10:17:37.338Z,84.70
2018-03-06T10:20:05.678Z,98.30
2018-03-06T10:22:34.010Z,83.60
2018-03-06T10:25:02.345Z,87.97
2018-03-06T10:27:30.701Z,98.43
2018-03-06T10:29:59.002Z,99.00
2018-03-06T10:32:27.360Z,92.27
2018-03-06T10:34:58.489Z,88.33
2018-03-06T10:37:26.874Z,94.00
2018-03-06T10:39:55.354Z,98.23
2018-03-06T10:42:24.452Z,96.03
2018-03-06T10:44:55.306Z,98.43
2018-03-06T10:47:24.478Z,99.07
2018-03-06T10:49:52.866Z,94.53
2018-03-06T10:52:21.236Z,89.90
2018-03-06T10:54:51.457Z,96.07
2018-03-06T10:57:21.600Z,96.30
2018-03-06T10:59:50.074Z,92.90
2018-03-06T11:02:18.447Z,86.67
2018-03-06T11:04:46.799Z,89.77
2018-03-06T11:07:15.842Z,97.97
2018-03-06T11:09:44.248Z,91.83
2018-03-06T11:12:12.589Z,108.43
2018-03-06T11:14:40.950Z,98.03
2018-03-06T11:17:09.325Z,95.50
2018-03-06T11:19:37.650Z,93.00
2018-03-06T11:22:06.019Z,96.03
2018-03-06T11:24:34.406Z,92.37
2018-03-06T11:27:02.778Z,100.60
2018-03-06T11:29:31.170Z,93.47
2018-03-06T11:31:59.496Z,94.00
2018-03-06T11:34:29.644Z,94.97
2018-03-06T11:36:59.088Z,98.63
2018-03-06T11:39:27.643Z,92.30
2018-03-06T11:41:56.240Z,96.77
2018-03-06T11:44:24.605Z,94.83
2018-03-06T11:46:53.814Z,99.57
2018-03-06T11:49:22.134Z,95.93
2018-03-06T11:51:50.577Z,98.43
2018-03-06T11:54:20.802Z,97.50
2018-03-06T11:56:53.212Z,94.40
2018-03-06T11:59:21.794Z,99.70
2018-03-06T12:01:50.234Z,93.00
2018-03-06T12:04:18.593Z,100.50
2018-03-06T12:06:46.886Z,99.33
2018-03-06T12:09:15.520Z,91.00
2018-03-06T12:11:43.948Z,87.83
2018-03-06T12:14:12.277Z,92.13
2018-03-06T12:16:40.683Z,96.47
2018-03-06T12:19:09.046Z,99.83
2018-03-06T12:21:39.145Z,98.13
2018-03-06T12:24:07.524Z,98.77
2018-03-06T12:26:36.552Z,99.03
2018-03-06T12:29:05.034Z,100.70
2018-03-06T12:31:35.239Z,101.90
2018-03-06T12:34:03.564Z,99.37
2018-03-06T12:36:34.397Z,97.90
2018-03-06T12:39:02.806Z,100.50
2018-03-06T12:41:31.193Z,96.77
2018-03-06T12:43:59.595Z,103.10
2018-03-06T12:46:27.962Z,95.10
2018-03-06T12:48:58.308Z,100.87
2018-03-06T12:51:30.789Z,108.43
2018-03-06T12:53:59.900Z,100.47
2018-03-06T12:56:28.251Z,98.80
2018-03-06T12:58:56.723Z,114.03
2018-03-06T13:01:25.117Z,96.57
2018-03-06T13:03:53.491Z,104.33
2018-03-06T13:06:22.014Z,101.20
2018-03-06T13:08:50.993Z,104.13
2018-03-06T13:11:19.313Z,100.40
2018-03-06T13:13:47.725Z,98.70
2018-03-06T13:16:16.163Z,98.30
2018-03-06T13:18:46.724Z,88.37
2018-03-06T13:21:15.395Z,95.70
2018-03-06T13:23:43.825Z,100.87
2018-03-06T13:26:14.240Z,99.93
2018-03-06T13:28:46.407Z,96.40
2018-03-06T13:31:14.769Z,104.33
2018-03-06T13:33:43.141Z,101.67
2018-03-06T13:36:11.655Z,95.43
2018-03-06T13:38:40.713Z,94.57
2018-03-06T13:41:11.016Z,93.30
2018-03-06T13:43:39.410Z,103.73
2018-03-06T13:46:07.765Z,106.00
2018-03-06T13:48:37.885Z,98.90
2018-03-06T13:51:06.286Z,103.67
2018-03-06T13:53:34.659Z,95.37
2018-03-06T13:56:03.123Z,100.67
2018-03-06T13:58:32.464Z,112.57
2018-03-06T14:01:00.955Z,95.50
2018-03-06T14:03:29.323Z,103.83
2018-03-06T14:05:57.820Z,101.20
2018-03-06T14:08:26.145Z,92.20
2018-03-06T14:10:55.156Z,92.47
2018-03-06T14:13:23.635Z,103.23
2018-03-06T14:15:53.664Z,103.43
2018-03-06T14:18:22.098Z,100.27
2018-03-06T14:20:50.465Z,93.30
2018-03-06T14:23:18.805Z,99.07
2018-03-06T14:25:47.146Z,94.80
2018-03-06T14:28:15.606Z,93.00
2018-03-06T14:30:43.961Z,97.63
2018-03-06T14:33:12.667Z,85.57
2018-03-06T14:35:41.225Z,94.60
2018-03-06T14:38:10.524Z,97.43
2018-03-06T14:40:41.767Z,94.70
2018-03-06T14:45:44.712Z,93.53
2018-03-06T14:48:13.040Z,86.30
2018-03-06T14:50:43.118Z,93.50
2018-03-06T14:53:13.675Z,88.83
2018-03-06T14:55:42.937Z,93.03
2018-03-06T14:58:13.383Z,92.53
2018-03-06T15:00:44.315Z,87.47
2018-03-06T15:03:12.711Z,89.07
2018-03-06T15:05:41.813Z,86.30
2018-03-06T15:08:10.187Z,91.40
2018-03-06T15:10:38.533Z,103.20
2018-03-06T15:13:07.771Z,98.70
2018-03-06T15:15:36.217Z,100.70
2018-03-06T15:18:07.120Z,87.70
2018-03-06T15:20:35.647Z,99.07
2018-03-06T15:23:03.979Z,93.23
2018-03-06T15:25:32.392Z,86.67
2018-03-06T15:28:00.955Z,88.67
2018-03-06T15:30:29.287Z,94.93
2018-03-06T15:33:00.575Z,91.60
2018-03-06T15:35:28.973Z,98.10
2018-03-06T15:37:57.346Z,92.80
2018-03-06T15:40:25.671Z,89.67
2018-03-06T15:42:54.088Z,96.33
2018-03-06T15:45:22.520Z,89.80
2018-03-06T15:47:50.858Z,87.57
2018-03-06T15:50:19.290Z,91.40
2018-03-06T15:52:47.661Z,92.13
2018-03-06T15:55:17.793Z,95.57
2018-03-06T15:57:47.771Z,84.27
2018-03-06T16:00:18.796Z,100.73
2018-03-06T16:02:47.215Z,101.23
2018-03-06T16:05:15.589Z,104.57
2018-03-06T16:07:43.943Z,89.13
2018-03-06T16:10:12.347Z,95.43
2018-03-06T16:12:40.860Z,93.90
2018-03-06T16:15:09.225Z,95.00
2018-03-06T16:17:38.513Z,99.57
2018-03-06T16:20:06.916Z,102.00
2018-03-06T16:22:35.363Z,95.37
2018-03-06T16:25:03.994Z,105.00
2018-03-06T16:27:35.033Z,109.57
2018-03-06T16:30:03.496Z,93.30
2018-03-06T16:32:32.062Z,103.50
2018-03-06T16:35:00.434Z,97.90
2018-03-06T16:37:29.876Z,97.07
2018-03-06T16:39:58.208Z,99.20
2018-03-06T16:42:28.439Z,104.23
2018-03-06T16:44:56.816Z,88.83
2018-03-06T16:47:25.198Z,95.10
2018-03-06T16:49:53.581Z,104.60
2018-03-06T16:52:22.098Z,97.13
2018-03-06T16:54:52.480Z,97.20
2018-03-06T16:57:20.943Z,97.37
2018-03-06T16:59:49.342Z,98.40
2018-03-06T17:02:20.345Z,97.33
2018-03-06T17:04:48.801Z,88.20
2018-03-06T17:07:17.260Z,102.20
2018-03-06T17:09:45.658Z,101.10
2018-03-06T17:12:14.108Z,106.43
2018-03-06T17:14:44.189Z,94.97
2018-03-06T17:17:12.668Z,94.13
2018-03-06T17:19:42.880Z,104.73
2018-03-06T17:22:11.235Z,90.87
2018-03-06T17:24:39.578Z,99.43
2018-03-06T17:27:08.877Z,99.70
2018-03-06T17:29:37.319Z,105.93
2018-03-06T17:32:05.867Z,87.53
2018-03-06T17:34:34.950Z,102.43
2018-03-06T17:37:03.382Z,107.53
2018-03-06T17:39:31.685Z,101.53
2018-03-06T17:42:00.063Z,108.20
2018-03-06T17:44:28.447Z,104.97
2018-03-06T17:46:58.486Z,106.57
2018-03-06T17:49:26.937Z,104.10
2018-03-06T17:51:55.312Z,112.40
2018-03-06T17:54:24.003Z,106.43
2018-03-06T17:56:53.302Z,104.10
2018-03-06T17:59:21.756Z,106.77
2018-03-06T18:01:50.328Z,110.40
2018-03-06T18:04:20.485Z,95.57
2018-03-06T18:06:48.919Z,106.43
2018-03-06T18:09:18.192Z,110.60
2018-03-06T18:11:46.604Z,116.10
2018-03-06T18:14:15.237Z,105.23
2018-03-06T18:16:43.597Z,113.47
2018-03-06T18:19:12.027Z,115.97
2018-03-06T18:21:40.513Z,118.90
2018-03-06T18:24:08.957Z,110.90
2018-03-06T18:26:38.189Z,117.73
2018-03-06T18:29:07.596Z,121.33
2018-03-06T18:31:35.962Z,126.63
2018-03-06T18:34:05.478Z,121.77
2018-03-06T18:36:36.436Z,117.43
2018-03-06T18:39:05.908Z,115.77
2018-03-06T18:41:34.337Z,132.17
2018-03-06T18:44:02.875Z,132.87
2018-03-06T18:46:32.079Z,136.07
2018-03-06T18:49:02.237Z,137.00
2018-03-06T18:51:31.249Z,123.87
2018-03-06T18:53:59.733Z,112.73
2018-03-06T18:56:28.146Z,121.83
2018-03-06T18:58:56.580Z,108.50
2018-03-06T19:05:00.399Z,115.03
2018-03-06T19:07:28.855Z,112.17
2018-03-06T19:09:58.034Z,111.83
2018-03-06T19:12:26.421Z,117.53
2018-03-06T19:14:56.352Z,131.00
2018-03-06T19:17:27.139Z,125.30
2018-03-06T19:19:56.679Z,116.43
2018-03-06T19:22:25.117Z,118.93
2018-03-06T19:24:55.333Z,131.20
2018-03-06T19:27:23.676Z,123.40
2018-03-06T19:29:53.114Z,118.00
2018-03-06T19:32:21.458Z,119.33
2018-03-06T19:34:51.541Z,120.87
2018-03-06T19:37:19.987Z,114.93
2018-03-06T19:39:50.093Z,119.53
2018-03-06T19:42:18.489Z,122.07
2018-03-06T19:44:46.922Z,116.27
2018-03-06T19:47:15.261Z,118.13
2018-03-06T19:49:43.710Z,117.47
2018-03-06T19:52:12.300Z,119.83
2018-03-06T19:54:40.640Z,121.90
2018-03-06T19:57:10.661Z,121.83
2018-03-06T19:59:41.504Z,121.70
2018-03-06T20:02:10.126Z,127.20
2018-03-06T20:04:42.206Z,122.43
2018-03-06T20:07:10.860Z,127.63
2018-03-06T20:09:42.870Z,126.73
2018-03-06T20:12:12.991Z,126.43
2018-03-06T20:14:47.056Z,114.43
2018-03-06T20:17:18.186Z,120.60
2018-03-06T20:19:46.606Z,120.30
2018-03-06T20:22:15.221Z,120.47
2018-03-06T20:24:49.111Z,120.27
2018-03-06T20:27:17.766Z,120.53
2018-03-06T20:29:46.169Z,125.00
2018-03-06T20:32:20.188Z,114.83
2018-03-06T20:34:48.650Z,123.63
2018-03-06T20:37:17.014Z,130.10
2018-03-06T20:39:51.078Z,126.93
2018-03-06T20:42:21.374Z,122.33
2018-03-06T20:44:54.010Z,120.80
2018-03-06T20:47:22.535Z,126.40
2018-03-06T20:49:51.209Z,126.30
2018-03-06T20:52:19.676Z,121.67
2018-03-06T20:54:53.700Z,114.87
2018-03-06T20:57:23.811Z,116.93
2018-03-06T20:59:54.046Z,119.00
2018-03-06T21:02:22.441Z,123.93
2018-03-06T21:04:50.925Z,124.47
2018-03-06T21:07:19.280Z,125.33
2018-03-06T21:09:47.667Z,115.43
2018-03-06T21:12:15.996Z,118.53
2018-03-06T21:14:44.585Z,118.87
2018-03-06T21:17:15.256Z,126.63
2018-03-06T21:19:43.628Z,125.67
2018-03-06T21:22:13.780Z,118.70
2018-03-06T21:24:43.766Z,136.27
2018-03-06T21:27:12.170Z,130.07
2018-03-06T21:29:40.499Z,121.43
2018-03-06T21:32:10.582Z,127.43
2018-03-06T21:34:39.335Z,115.50
2018-03-06T21:37:07.672Z,116.97
2018-03-06T21:39:36.076Z,117.73
2018-03-06T21:42:04.454Z,125.00
2018-03-06T21:44:32.827Z,129.63
2018-03-06T21:47:01.239Z,120.97
2018-03-06T21:49:30.306Z,117.30
2018-03-06T21:54:33.482Z,128.67
2018-03-06T21:57:01.808Z,124.30
2018-03-06T21:59:30.202Z,118.57
2018-03-06T22:01:58.561Z,115.20
2018-03-06T22:04:26.963Z,139.20
2018-03-06T22:06:58.111Z,132.97
2018-03-06T22:09:26.490Z,122.70
2018-03-06T22:11:54.900Z,126.33
2018-03-06T22:14:25.458Z,132.07
2018-03-06T22:16:55.546Z,119.13
2018-03-06T22:19:25.787Z,123.00
2018-03-06T22:21:54.108Z,114.17
2018-03-06T22:24:23.199Z,122.17
2018-03-06T22:26:52.259Z,120.67
2018-03-06T22:29:20.707Z,108.33
2018-03-06T22:31:49.235Z,115.90
2018-03-06T22:34:17.621Z,121.80
2018-03-06T22:36:45.961Z,116.77
2018-03-06T22:39:14.363Z,118.60
2018-03-06T22:41:42.772Z,138.97
2018-03-06T22:44:11.210Z,117.47
2018-03-06T22:46:39.576Z,118.80
2018-03-06T22:49:08.671Z,132.00
2018-03-06T22:51:37.307Z,136.90
2018-03-06T22:54:05.670Z,133.67
2018-03-06T22:56:34.821Z,129.67
2018-03-06T22:59:03.216Z,122.33
2018-03-06T23:01:33.398Z,119.90
2018-03-06T23:04:03.640Z,125.47
2018-03-06T23:06:34.221Z,123.23
2018-03-06T23:09:02.556Z,110.43
2018-03-06T23:11:30.992Z,116.57
2018-03-06T23:14:01.705Z,114.83
2018-03-06T23:16:30.134Z,108.17
2018-03-06T23:18:58.651Z,112.10
2018-03-06T23:21:27.008Z,126.30
2018-03-06T23:23:55.354Z,107.10
2018-03-06T23:26:24.747Z,102.53
2018-03-06T23:28:53.217Z,97.77
2018-03-06T23:31:21.536Z,97.63
2018-03-06T23:33:51.913Z,93.70
2018-03-06T23:36:21.102Z,115.40
2018-03-06T23:38:51.284Z,112.80
2018-03-06T23:41:19.660Z,102.17
2018-03-06T23:43:48.014Z,107.17
2018-03-06T23:46:17.127Z,99.57
2018-03-06T23:48:45.486Z,99.77
2018-03-06T23:51:13.853Z,105.03
2018-03-06T23:53:42.355Z,102.73
2018-03-06T23:56:10.817Z,103.80
2018-03-06T23:58:39.206Z,98.17
